createdAt,value
2023-11-06T00:01:04.213Z,58.18
2023-11-06T00:03:32.250Z,58.45
2023-11-06T00:06:00.310Z,58.41
2023-11-06T00:08:28.292Z,58.17
2023-11-06T00:10:58.213Z,58.25
2023-11-06T00:13:26.237Z,58.16
2023-11-06T00:15:54.174Z,58.29
2023-11-06T00:18:22.502Z,58.65
2023-11-06T00:20:50.762Z,58.16
2023-11-06T00:23:18.751Z,58.22
2023-11-06T00:25:46.886Z,58.01
2023-11-06T00:28:16.233Z,58.53
2023-11-06T00:30:44.278Z,58.22
2023-11-06T00:33:12.242Z,58.01
2023-11-06T00:35:40.215Z,58.21
2023-11-06T00:38:08.213Z,58.18
2023-11-06T00:40:36.208Z,58.35
2023-11-06T00:43:04.188Z,58.24
2023-11-06T00:45:33.525Z,58.49
2023-11-06T00:48:01.618Z,58.27
2023-11-06T00:50:29.816Z,58.65
2023-11-06T00:52:59.611Z,58.12
2023-11-06T00:55:28.330Z,58.35
2023-11-06T00:57:56.314Z,57.96
2023-11-06T01:00:24.294Z,58.61
2023-11-06T01:02:53.691Z,58.14
2023-11-06T01:05:21.711Z,58.26
2023-11-06T01:07:49.756Z,58.09
2023-11-06T01:10:18.627Z,58.27
2023-11-06T01:12:46.635Z,58.19
2023-11-06T01:15:17.779Z,58.55
2023-11-06T01:17:45.931Z,58.25
2023-11-06T01:20:16.592Z,58.53
2023-11-06T01:22:44.794Z,58.44
2023-11-06T01:25:12.868Z,58.08
2023-11-06T01:27:40.853Z,58.50
2023-11-06T01:30:11.012Z,58.04
2023-11-06T01:32:39.123Z,58.44
2023-11-06T01:35:07.484Z,58.39
2023-11-06T01:37:36.848Z,58.64
2023-11-06T01:40:07.458Z,58.28
2023-11-06T01:42:35.457Z,58.62
2023-11-06T01:45:03.785Z,58.27
2023-11-06T01:47:32.746Z,58.07
2023-11-06T01:50:00.973Z,58.13
2023-11-06T01:52:28.962Z,57.98
2023-11-06T01:54:58.315Z,58.33
2023-11-06T01:57:26.314Z,57.99
2023-11-06T01:59:54.805Z,58.12
2023-11-06T02:02:22.864Z,58.38
2023-11-06T02:04:51.164Z,58.05
2023-11-06T02:07:19.281Z,58.00
2023-11-06T02:09:47.232Z,57.94
2023-11-06T02:12:16.571Z,57.96
2023-11-06T02:14:51.781Z,58.02
2023-11-06T02:17:19.800Z,58.01
2023-11-06T02:19:47.928Z,57.99
2023-11-06T02:22:17.944Z,57.97
2023-11-06T02:24:47.350Z,58.39
2023-11-06T02:27:15.361Z,58.43
2023-11-06T02:29:43.746Z,58.09
2023-11-06T02:32:11.973Z,58.04
2023-11-06T02:34:40.985Z,58.30
2023-11-06T02:37:10.145Z,58.36
2023-11-06T02:39:38.736Z,58.13
2023-11-06T02:42:08.738Z,57.89
2023-11-06T02:44:36.748Z,57.97
2023-11-06T02:47:04.812Z,58.15
2023-11-06T02:49:32.769Z,57.89
2023-11-06T02:52:00.707Z,58.27
2023-11-06T02:54:28.692Z,58.31
2023-11-06T02:56:56.649Z,57.84
2023-11-06T02:59:26.020Z,58.07
2023-11-06T03:01:54.005Z,57.99
2023-11-06T03:04:21.961Z,58.10
2023-11-06T03:06:50.327Z,58.00
2023-11-06T03:09:18.271Z,58.42
2023-11-06T03:11:46.273Z,58.33
2023-11-06T03:14:14.341Z,57.73
2023-11-06T03:16:43.829Z,57.84
2023-11-06T03:19:11.813Z,58.07
2023-11-06T03:21:39.947Z,57.77
2023-11-06T03:24:09.163Z,58.19
2023-11-06T03:26:37.186Z,58.28
2023-11-06T03:29:05.203Z,58.23
2023-11-06T03:31:33.284Z,57.96
2023-11-06T03:34:02.735Z,57.88
2023-11-06T03:36:30.708Z,58.05
2023-11-06T03:38:58.685Z,58.30
2023-11-06T03:41:26.732Z,58.35
2023-11-06T03:43:54.882Z,57.90
2023-11-06T03:46:22.884Z,58.36
2023-11-06T03:48:50.878Z,58.39
2023-11-06T03:51:20.269Z,58.14
2023-11-06T03:53:48.241Z,57.82
2023-11-06T03:56:16.215Z,58.20
2023-11-06T03:58:44.271Z,58.23
2023-11-06T04:01:12.195Z,58.15
2023-11-06T04:03:40.732Z,58.00
2023-11-06T04:06:10.094Z,58.23
2023-11-06T04:08:39.486Z,58.38
2023-11-06T04:11:08.943Z,58.44
2023-11-06T04:13:36.911Z,57.96
2023-11-06T04:16:05.697Z,57.98
2023-11-06T04:18:34.614Z,58.37
2023-11-06T04:21:03.103Z,58.02
2023-11-06T04:23:31.581Z,58.50
2023-11-06T04:26:01.002Z,58.35
2023-11-06T04:28:29.033Z,58.31
2023-11-06T04:30:57.107Z,58.38
2023-11-06T04:33:25.196Z,58.34
2023-11-06T04:35:53.207Z,57.99
2023-11-06T04:38:21.241Z,58.27
2023-11-06T04:40:49.286Z,58.53
2023-11-06T04:43:19.168Z,58.54
2023-11-06T04:45:47.251Z,58.20
2023-11-06T04:48:15.238Z,58.35
2023-11-06T04:50:43.267Z,58.42
2023-11-06T04:53:11.325Z,58.14
2023-11-06T04:55:39.727Z,58.02
2023-11-06T04:58:08.005Z,58.37
2023-11-06T05:00:37.306Z,58.14
2023-11-06T05:03:05.396Z,57.97
2023-11-06T05:05:33.515Z,58.06
2023-11-06T05:08:01.570Z,58.33
2023-11-06T05:10:29.891Z,58.05
2023-11-06T05:12:57.876Z,58.53
2023-11-06T05:15:26.295Z,58.13
2023-11-06T05:17:55.853Z,58.33
2023-11-06T05:20:24.395Z,58.47
2023-11-06T05:22:52.410Z,57.97
2023-11-06T05:25:20.475Z,58.10
2023-11-06T05:27:48.435Z,58.02
2023-11-06T05:30:16.598Z,58.24
2023-11-06T05:32:44.728Z,58.04
2023-11-06T05:35:14.306Z,58.28
2023-11-06T05:37:42.295Z,58.05
2023-11-06T05:40:11.312Z,58.29
2023-11-06T05:42:39.325Z,58.27
2023-11-06T05:45:08.691Z,58.13
2023-11-06T05:47:36.811Z,58.10
2023-11-06T05:50:05.396Z,57.92
2023-11-06T05:52:35.028Z,58.34
2023-11-06T05:55:03.444Z,58.24
2023-11-06T05:57:31.460Z,58.09
2023-11-06T05:59:59.423Z,57.82
2023-11-06T06:02:28.459Z,57.82
2023-11-06T06:04:58.592Z,58.38
2023-11-06T06:07:26.613Z,57.99
2023-11-06T06:09:56.755Z,58.27
2023-11-06T06:12:24.769Z,57.98
2023-11-06T06:14:52.907Z,58.04
2023-11-06T06:17:21.019Z,58.04
2023-11-06T06:19:49.002Z,58.12
2023-11-06T06:22:17.248Z,57.82
2023-11-06T06:24:46.810Z,58.24
2023-11-06T06:27:16.243Z,57.74
2023-11-06T06:29:44.292Z,57.69
2023-11-06T06:32:15.362Z,58.09
2023-11-06T06:34:43.699Z,58.01
2023-11-06T06:37:12.369Z,57.99
2023-11-06T06:39:40.369Z,58.16
2023-11-06T06:42:08.809Z,57.78
2023-11-06T06:44:38.628Z,57.96
2023-11-06T06:47:06.915Z,58.12
2023-11-06T06:49:40.343Z,58.16
2023-11-06T06:52:08.473Z,58.21
2023-11-06T06:54:36.492Z,57.62
2023-11-06T06:57:04.619Z,57.64
2023-11-06T06:59:32.659Z,57.77
2023-11-06T07:02:02.059Z,57.99
2023-11-06T07:04:30.052Z,57.82
2023-11-06T07:06:58.027Z,57.89
2023-11-06T07:09:27.845Z,57.74
2023-11-06T07:11:55.933Z,58.19
2023-11-06T07:14:25.320Z,58.04
2023-11-06T07:16:53.922Z,57.58
2023-11-06T07:19:23.356Z,57.74
2023-11-06T07:21:51.352Z,57.88
2023-11-06T07:24:19.350Z,57.67
2023-11-06T07:26:46.396Z,57.79
2023-11-06T07:29:14.397Z,57.69
2023-11-06T07:31:43.346Z,57.69
2023-11-06T07:34:11.383Z,57.86
2023-11-06T07:36:40.900Z,57.94
2023-11-06T07:39:09.084Z,57.37
2023-11-06T07:41:37.233Z,57.38
2023-11-06T07:44:05.623Z,57.39
2023-11-06T07:46:33.643Z,57.56
2023-11-06T07:49:01.686Z,57.23
2023-11-06T07:51:29.684Z,57.77
2023-11-06T07:53:59.035Z,57.50
2023-11-06T07:56:27.204Z,57.60
2023-11-06T07:58:56.682Z,57.70
2023-11-06T08:01:24.805Z,57.39
2023-11-06T08:03:52.785Z,57.41
2023-11-06T08:06:20.860Z,57.34
2023-11-06T08:08:50.581Z,57.62
2023-11-06T08:11:22.229Z,57.09
2023-11-06T08:13:50.296Z,57.55
2023-11-06T08:16:18.531Z,57.37
2023-11-06T08:18:46.797Z,57.28
2023-11-06T08:21:14.839Z,57.37
2023-11-06T08:23:43.100Z,56.89
2023-11-06T08:26:11.854Z,56.85
2023-11-06T08:28:42.018Z,56.77
2023-11-06T08:31:10.606Z,57.39
2023-11-06T08:33:39.025Z,57.18
2023-11-06T08:36:08.396Z,57.02
2023-11-06T08:38:36.997Z,56.81
2023-11-06T08:41:08.626Z,57.24
2023-11-06T08:43:36.749Z,56.80
2023-11-06T08:46:06.587Z,57.00
2023-11-06T08:48:35.058Z,56.96
2023-11-06T08:51:03.408Z,56.84
2023-11-06T08:53:35.301Z,56.81
2023-11-06T08:56:03.317Z,57.05
2023-11-06T08:58:31.296Z,56.45
2023-11-06T09:01:01.750Z,56.45
2023-11-06T09:03:31.234Z,56.56
2023-11-06T09:05:59.494Z,56.69
2023-11-06T09:08:27.530Z,56.90
2023-11-06T09:10:55.533Z,56.95
2023-11-06T09:13:23.628Z,56.80
2023-11-06T09:15:51.710Z,56.42
2023-11-06T09:18:20.999Z,56.44
2023-11-06T09:20:52.665Z,56.89
2023-11-06T09:23:23.117Z,56.42
2023-11-06T09:25:51.166Z,56.45
2023-11-06T09:28:19.149Z,56.25
2023-11-06T09:30:47.928Z,56.29
2023-11-06T09:33:15.970Z,56.48
2023-11-06T09:35:44.307Z,56.45
2023-11-06T09:38:13.912Z,56.17
2023-11-06T09:40:41.942Z,56.58
2023-11-06T09:43:09.972Z,56.29
2023-11-06T09:45:38.051Z,56.71
2023-11-06T09:48:10.171Z,56.39
2023-11-06T09:50:38.293Z,56.13
2023-11-06T09:53:06.388Z,56.14
2023-11-06T09:55:35.884Z,56.27
2023-11-06T09:58:04.973Z,56.62
2023-11-06T10:00:32.964Z,56.08
2023-11-06T10:03:01.048Z,56.00
2023-11-06T10:05:29.266Z,56.09
2023-11-06T10:07:57.313Z,56.16
2023-11-06T10:10:26.539Z,56.02
2023-11-06T10:13:05.810Z,55.88
2023-11-06T10:15:34.384Z,55.98
2023-11-06T10:18:14.104Z,56.03
2023-11-06T10:20:43.432Z,55.88
2023-11-06T10:23:11.465Z,56.23
2023-11-06T10:25:39.555Z,56.00
2023-11-06T10:28:19.589Z,55.73
2023-11-06T10:30:48.100Z,55.94
2023-11-06T10:33:16.459Z,55.81
2023-11-06T10:35:44.762Z,56.24
2023-11-06T10:38:29.579Z,56.02
2023-11-06T10:40:57.907Z,56.14
2023-11-06T10:43:27.735Z,55.68
2023-11-06T10:45:56.061Z,56.03
2023-11-06T10:48:33.071Z,56.01
2023-11-06T10:51:01.516Z,56.12
2023-11-06T10:53:29.830Z,56.34
2023-11-06T10:55:58.805Z,55.94
2023-11-06T10:58:28.206Z,56.13
2023-11-06T11:00:56.220Z,56.09
2023-11-06T11:03:24.252Z,56.16
2023-11-06T11:05:54.610Z,56.23
2023-11-06T11:08:26.285Z,55.63
2023-11-06T11:10:54.627Z,56.11
2023-11-06T11:13:22.896Z,55.87
2023-11-06T11:15:53.118Z,55.72
2023-11-06T11:18:21.285Z,55.72
2023-11-06T11:20:52.578Z,56.07
2023-11-06T11:23:25.458Z,56.20
2023-11-06T11:25:59.712Z,56.07
2023-11-06T11:28:29.335Z,55.63
2023-11-06T11:31:18.953Z,55.75
2023-11-06T11:33:56.892Z,55.58
2023-11-06T11:36:28.267Z,55.59
2023-11-06T11:38:57.093Z,55.91
2023-11-06T11:41:25.288Z,56.01
2023-11-06T11:44:05.937Z,55.54
2023-11-06T11:46:55.002Z,55.99
2023-11-06T11:49:47.670Z,55.57
2023-11-06T11:52:42.383Z,55.60
2023-11-06T11:55:32.978Z,55.88
2023-11-06T11:58:06.189Z,55.46
2023-11-06T12:00:35.846Z,55.90
2023-11-06T12:03:07.310Z,55.52
2023-11-06T12:05:35.562Z,55.74
2023-11-06T12:08:14.901Z,56.03
2023-11-06T12:10:44.160Z,56.07
2023-11-06T12:13:15.538Z,55.96
2023-11-06T12:15:43.538Z,55.65
2023-11-06T12:18:13.534Z,55.96
2023-11-06T12:20:41.747Z,56.10
2023-11-06T12:23:10.440Z,55.86
2023-11-06T12:25:40.212Z,55.93
2023-11-06T12:28:08.749Z,55.67
2023-11-06T12:30:37.237Z,55.90
2023-11-06T12:33:14.925Z,56.08
2023-11-06T12:35:43.113Z,55.99
2023-11-06T12:38:11.397Z,56.25
2023-11-06T12:40:43.355Z,55.98
2023-11-06T12:43:14.135Z,55.87
2023-11-06T12:45:43.133Z,56.06
2023-11-06T12:48:28.201Z,55.79
2023-11-06T12:51:07.400Z,56.11
2023-11-06T12:53:37.045Z,55.86
2023-11-06T12:56:06.833Z,55.89
2023-11-06T12:58:37.635Z,56.08
2023-11-06T13:01:19.558Z,56.43
2023-11-06T13:03:49.536Z,56.02
2023-11-06T13:06:19.888Z,56.30
2023-11-06T13:08:48.234Z,56.32
2023-11-06T13:11:25.590Z,56.13
2023-11-06T13:14:02.227Z,56.11
2023-11-06T13:16:30.713Z,56.23
2023-11-06T13:19:00.739Z,56.31
2023-11-06T13:21:32.202Z,55.86
2023-11-06T13:24:01.652Z,55.93
2023-11-06T13:26:29.891Z,56.14
2023-11-06T13:28:57.962Z,56.27
2023-11-06T13:31:28.548Z,56.27
2023-11-06T13:33:57.466Z,56.08
2023-11-06T13:36:26.964Z,55.88
2023-11-06T13:38:55.144Z,55.92
2023-11-06T13:41:24.022Z,56.19
2023-11-06T13:43:53.012Z,55.70
2023-11-06T13:46:22.695Z,55.88
2023-11-06T13:48:51.825Z,55.73
2023-11-06T13:51:26.054Z,56.31
2023-11-06T13:54:00.980Z,56.25
2023-11-06T13:56:38.378Z,56.04
2023-11-06T13:59:10.813Z,55.76
2023-11-06T14:01:47.717Z,56.22
2023-11-06T14:04:17.505Z,56.15
2023-11-06T14:06:48.438Z,56.23
2023-11-06T14:09:35.935Z,55.96
2023-11-06T14:12:06.137Z,56.28
2023-11-06T14:14:34.582Z,56.40
2023-11-06T14:17:05.741Z,56.30
2023-11-06T14:19:35.082Z,55.85
2023-11-06T14:22:08.396Z,55.98
2023-11-06T14:24:40.789Z,55.95
2023-11-06T14:27:09.767Z,55.87
2023-11-06T14:29:38.239Z,56.28
2023-11-06T14:32:07.110Z,56.07
2023-11-06T14:34:35.229Z,55.81
2023-11-06T14:37:03.265Z,55.87
2023-11-06T14:39:31.220Z,56.29
2023-11-06T14:42:00.706Z,55.81
2023-11-06T14:44:29.199Z,55.94
2023-11-06T14:46:57.539Z,56.17
2023-11-06T14:49:25.915Z,55.93
2023-11-06T14:51:53.983Z,56.18
2023-11-06T14:54:22.010Z,55.93
2023-11-06T14:56:50.128Z,56.21
2023-11-06T14:59:19.813Z,56.41
2023-11-06T15:01:48.415Z,56.39
2023-11-06T15:04:16.483Z,56.00
2023-11-06T15:06:44.581Z,56.42
2023-11-06T15:09:12.777Z,56.33
2023-11-06T15:11:40.758Z,55.87
2023-11-06T15:14:09.886Z,55.83
2023-11-06T15:16:40.116Z,56.18
2023-11-06T15:19:09.845Z,56.36
2023-11-06T15:21:38.298Z,56.18
2023-11-06T15:24:08.243Z,56.08
2023-11-06T15:26:37.233Z,55.92
2023-11-06T15:29:05.249Z,55.95
2023-11-06T15:31:33.241Z,56.21
2023-11-06T15:34:03.543Z,56.08
2023-11-06T15:36:31.565Z,56.05
2023-11-06T15:38:59.662Z,56.54
2023-11-06T15:41:27.610Z,56.31
2023-11-06T15:43:55.597Z,56.26
2023-11-06T15:46:27.858Z,56.50
2023-11-06T15:49:00.902Z,56.48
2023-11-06T15:51:30.466Z,56.16
2023-11-06T15:53:58.584Z,56.21
2023-11-06T15:56:26.636Z,56.57
2023-11-06T15:58:54.622Z,56.56
2023-11-06T16:01:22.707Z,56.30
2023-11-06T16:03:50.885Z,56.34
2023-11-06T16:06:19.134Z,56.09
2023-11-06T16:08:48.820Z,56.35
2023-11-06T16:11:19.036Z,56.12
2023-11-06T16:13:49.749Z,56.10
2023-11-06T16:16:17.737Z,56.68
2023-11-06T16:18:45.783Z,56.26
2023-11-06T16:21:14.136Z,56.63
2023-11-06T16:23:42.486Z,56.65
2023-11-06T16:26:12.000Z,56.22
2023-11-06T16:28:40.306Z,56.16
2023-11-06T16:31:08.367Z,56.10
2023-11-06T16:33:36.386Z,56.74
2023-11-06T16:36:10.095Z,56.18
2023-11-06T16:38:38.082Z,56.47
2023-11-06T16:41:09.104Z,56.22
2023-11-06T16:43:38.644Z,56.18
2023-11-06T16:46:09.655Z,56.40
2023-11-06T16:48:38.104Z,56.42
2023-11-06T16:51:06.595Z,56.48
2023-11-06T16:53:34.603Z,56.53
2023-11-06T16:56:02.598Z,56.65
2023-11-06T16:58:30.539Z,56.60
2023-11-06T17:00:59.852Z,56.60
2023-11-06T17:03:27.962Z,56.18
2023-11-06T17:05:57.333Z,56.57
2023-11-06T17:08:25.573Z,56.11
2023-11-06T17:10:53.608Z,56.55
2023-11-06T17:13:21.529Z,56.59
2023-11-06T17:15:50.068Z,56.51
2023-11-06T17:18:21.870Z,56.30
2023-11-06T17:20:50.326Z,56.49
2023-11-06T17:23:18.370Z,56.80
2023-11-06T17:25:46.454Z,56.64
2023-11-06T17:28:14.421Z,56.32
2023-11-06T17:30:42.575Z,56.18
2023-11-06T17:33:12.127Z,56.54
2023-11-06T17:35:41.630Z,56.78
2023-11-06T17:38:10.369Z,56.77
2023-11-06T17:40:40.720Z,56.58
2023-11-06T17:43:08.883Z,56.73
2023-11-06T17:45:36.923Z,56.32
2023-11-06T17:48:06.129Z,56.44
2023-11-06T17:50:35.222Z,56.61
2023-11-06T17:53:05.260Z,56.44
2023-11-06T17:55:33.630Z,56.25
2023-11-06T17:58:01.605Z,56.58
2023-11-06T18:00:29.570Z,56.78
2023-11-06T18:02:57.585Z,56.36
2023-11-06T18:05:26.075Z,56.75
2023-11-06T18:07:54.069Z,56.50
2023-11-06T18:10:23.614Z,56.44
2023-11-06T18:12:51.543Z,56.79
2023-11-06T18:15:19.513Z,56.37
2023-11-06T18:17:47.501Z,56.47
2023-11-06T18:20:19.057Z,56.60
2023-11-06T18:22:47.306Z,56.55
2023-11-06T18:25:15.824Z,56.88
2023-11-06T18:27:45.296Z,56.67
2023-11-06T18:30:14.153Z,56.54
2023-11-06T18:32:44.461Z,56.37
2023-11-06T18:35:12.577Z,56.55
2023-11-06T18:37:40.539Z,56.69
2023-11-06T18:40:10.357Z,56.92
2023-11-06T18:42:38.380Z,56.58
2023-11-06T18:45:08.981Z,56.53
2023-11-06T18:47:37.377Z,56.71
2023-11-06T18:50:06.005Z,56.85
2023-11-06T18:52:33.951Z,56.63
2023-11-06T18:55:02.176Z,56.94
2023-11-06T18:57:30.151Z,56.75
2023-11-06T18:59:58.095Z,56.87
2023-11-06T19:02:28.635Z,56.34
2023-11-06T19:04:56.700Z,56.58
2023-11-06T19:07:26.781Z,56.48
2023-11-06T19:09:54.838Z,56.89
2023-11-06T19:12:23.189Z,56.51
2023-11-06T19:14:51.234Z,56.68
2023-11-06T19:17:19.262Z,56.80
2023-11-06T19:19:49.527Z,56.53
2023-11-06T19:22:17.658Z,56.52
2023-11-06T19:24:47.684Z,56.49
2023-11-06T19:27:15.693Z,56.50
2023-11-06T19:29:43.839Z,56.77
2023-11-06T19:32:11.857Z,56.84
2023-11-06T19:34:40.628Z,56.41
2023-11-06T19:37:10.715Z,56.90
2023-11-06T19:39:38.785Z,56.48
2023-11-06T19:42:08.044Z,56.42
2023-11-06T19:44:36.086Z,56.36
2023-11-06T19:47:04.152Z,56.60
2023-11-06T19:49:32.159Z,56.43
2023-11-06T19:52:00.161Z,56.91
2023-11-06T19:54:29.527Z,56.53
2023-11-06T19:56:57.493Z,56.49
2023-11-06T19:59:40.732Z,56.48
2023-11-06T20:02:13.386Z,57.04
2023-11-06T20:04:41.447Z,56.74
2023-11-06T20:07:10.342Z,56.70
2023-11-06T20:09:39.894Z,56.85
2023-11-06T20:12:08.514Z,56.91
2023-11-06T20:14:36.908Z,56.84
2023-11-06T20:17:06.019Z,57.03
2023-11-06T20:19:34.026Z,56.96
2023-11-06T20:22:02.037Z,56.92
2023-11-06T20:24:30.001Z,56.79
2023-11-06T20:26:59.404Z,56.78
2023-11-06T20:29:27.560Z,56.79
2023-11-06T20:31:55.575Z,56.92
2023-11-06T20:34:23.912Z,56.92
2023-11-06T20:36:51.766Z,57.37
2023-11-06T20:39:19.832Z,57.08
2023-11-06T20:41:47.844Z,57.21
2023-11-06T20:44:18.399Z,57.35
2023-11-06T20:46:47.049Z,57.62
2023-11-06T20:49:15.483Z,57.32
2023-11-06T20:51:44.157Z,57.59
2023-11-06T20:54:14.697Z,57.55
2023-11-06T20:56:43.886Z,57.67
2023-11-06T20:59:11.953Z,58.04
2023-11-06T21:01:41.779Z,57.72
2023-11-06T21:04:09.991Z,58.13
2023-11-06T21:06:38.216Z,57.81
2023-11-06T21:09:06.678Z,58.29
2023-11-06T21:11:35.517Z,58.10
2023-11-06T21:14:03.519Z,58.36
2023-11-06T21:16:34.959Z,58.08
2023-11-06T21:19:04.871Z,58.31
2023-11-06T21:21:32.841Z,58.59
2023-11-06T21:24:02.515Z,58.60
2023-11-06T21:26:30.853Z,58.84
2023-11-06T21:28:58.853Z,58.75
2023-11-06T21:31:27.145Z,58.83
2023-11-06T21:33:56.468Z,59.42
2023-11-06T21:36:29.208Z,59.14
2023-11-06T21:38:59.085Z,58.95
2023-11-06T21:41:27.556Z,58.62
2023-11-06T21:43:55.745Z,58.97
2023-11-06T21:46:23.777Z,58.37
2023-11-06T21:48:51.893Z,58.64
2023-11-06T21:51:19.931Z,58.91
2023-11-06T21:53:49.347Z,58.57
2023-11-06T21:56:17.415Z,58.59
2023-11-06T21:58:47.561Z,58.99
2023-11-06T22:01:19.908Z,59.09
2023-11-06T22:03:48.134Z,58.69
2023-11-06T22:06:16.333Z,58.70
2023-11-06T22:08:44.443Z,58.66
2023-11-06T22:11:13.806Z,59.04
2023-11-06T22:13:41.800Z,58.84
2023-11-06T22:16:10.504Z,58.71
2023-11-06T22:18:38.513Z,59.02
2023-11-06T22:21:07.127Z,58.94
2023-11-06T22:23:35.297Z,58.79
2023-11-06T22:26:03.308Z,59.14
2023-11-06T22:28:32.656Z,58.63
2023-11-06T22:31:00.655Z,58.70
2023-11-06T22:33:29.954Z,58.92
2023-11-06T22:35:58.092Z,59.05
2023-11-06T22:38:26.132Z,58.98
2023-11-06T22:40:54.082Z,59.00
2023-11-06T22:43:22.064Z,59.28
2023-11-06T22:45:52.581Z,58.83
2023-11-06T22:48:20.873Z,59.29
2023-11-06T22:50:49.069Z,59.52
2023-11-06T22:53:20.603Z,59.53
2023-11-06T22:55:48.724Z,59.24
2023-11-06T22:58:16.708Z,59.17
2023-11-06T23:00:47.631Z,59.75
2023-11-06T23:03:18.200Z,60.53
2023-11-06T23:05:48.147Z,60.75
2023-11-06T23:08:16.364Z,60.28
2023-11-06T23:10:44.427Z,60.09
2023-11-06T23:13:13.291Z,60.50
2023-11-06T23:15:41.291Z,60.06
2023-11-06T23:18:09.459Z,59.89
2023-11-06T23:20:39.830Z,60.26
2023-11-06T23:23:08.149Z,59.96
2023-11-06T23:25:38.975Z,60.41
2023-11-06T23:28:07.493Z,60.93
2023-11-06T23:30:35.523Z,60.73
2023-11-06T23:33:03.651Z,60.75
2023-11-06T23:35:32.301Z,60.79
2023-11-06T23:38:01.655Z,60.44
2023-11-06T23:40:31.216Z,60.51
2023-11-06T23:43:00.800Z,60.24
2023-11-06T23:45:29.733Z,60.22
2023-11-06T23:47:57.870Z,60.69
2023-11-06T23:50:25.945Z,60.54
2023-11-06T23:52:53.967Z,60.65
2023-11-06T23:55:23.507Z,60.65
2023-11-06T23:57:51.700Z,60.45
